createdAt,value
2022-10-13T00:00:50.551Z,12.20
2022-10-13T00:03:17.838Z,11.02
2022-10-13T00:05:47.647Z,12.45
2022-10-13T00:08:16.537Z,11.52
2022-10-13T00:10:47.003Z,9.95
2022-10-13T00:13:14.866Z,10.77
2022-10-13T00:15:45.979Z,11.95
2022-10-13T00:18:13.247Z,12.38
2022-10-13T00:20:45.121Z,11.40
2022-10-13T00:23:13.889Z,12.32
2022-10-13T00:25:42.766Z,11.95
2022-10-13T00:28:10.131Z,11.85
2022-10-13T00:30:37.893Z,10.88
2022-10-13T00:33:05.718Z,10.60
2022-10-13T00:35:32.899Z,11.15
2022-10-13T00:37:59.667Z,11.25
2022-10-13T00:40:29.934Z,11.02
2022-10-13T00:42:56.663Z,10.75
2022-10-13T00:45:29.608Z,10.30
2022-10-13T00:48:01.030Z,9.95
2022-10-13T00:50:38.961Z,9.82
2022-10-13T00:53:07.371Z,10.27
2022-10-13T00:55:36.949Z,11.00
2022-10-13T00:58:06.884Z,11.20
2022-10-13T01:00:34.992Z,10.57
2022-10-13T01:03:02.826Z,10.40
2022-10-13T01:05:30.969Z,10.93
2022-10-13T01:07:59.486Z,11.20
2022-10-13T01:10:32.095Z,10.95
2022-10-13T01:13:15.183Z,10.95
2022-10-13T01:15:53.910Z,10.48
2022-10-13T01:18:39.934Z,10.68
2022-10-13T01:21:24.370Z,10.98
2022-10-13T01:23:53.866Z,11.50
2022-10-13T01:26:32.609Z,11.90
2022-10-13T01:29:17.484Z,11.33
2022-10-13T01:31:58.978Z,11.35
2022-10-13T01:34:51.703Z,11.93
2022-10-13T01:37:52.502Z,10.48
2022-10-13T01:40:28.838Z,12.48
2022-10-13T01:42:55.467Z,11.50
2022-10-13T01:45:29.264Z,11.55
2022-10-13T01:47:57.980Z,12.30
2022-10-13T01:50:24.730Z,12.27
2022-10-13T01:52:52.907Z,11.88
2022-10-13T01:55:19.663Z,11.03
2022-10-13T01:57:46.526Z,10.18
2022-10-13T02:00:19.431Z,9.65
2022-10-13T02:03:18.317Z,10.48
2022-10-13T02:05:49.527Z,9.55
2022-10-13T02:08:29.967Z,12.47
2022-10-13T02:11:23.683Z,10.75
2022-10-13T02:14:17.683Z,11.13
2022-10-13T02:16:45.888Z,10.95
2022-10-13T02:19:17.226Z,10.93
2022-10-13T02:21:44.598Z,10.00
2022-10-13T02:24:12.178Z,10.15
2022-10-13T02:26:39.321Z,10.73
2022-10-13T02:29:15.259Z,10.98
2022-10-13T02:31:43.803Z,11.20
2022-10-13T02:34:11.111Z,11.40
2022-10-13T02:36:38.486Z,11.48
2022-10-13T02:39:06.377Z,10.73
2022-10-13T02:41:33.211Z,11.02
2022-10-13T02:43:59.925Z,11.10
2022-10-13T02:46:34.250Z,11.55
2022-10-13T02:49:01.038Z,11.48
2022-10-13T02:51:28.753Z,11.88
2022-10-13T02:53:55.535Z,11.35
2022-10-13T02:56:22.249Z,11.85
2022-10-13T02:58:48.965Z,10.95
2022-10-13T03:01:16.560Z,10.95
2022-10-13T03:03:43.555Z,11.02
2022-10-13T03:06:10.371Z,11.85
2022-10-13T03:08:37.972Z,12.13
2022-10-13T03:11:04.882Z,11.37
2022-10-13T03:13:31.604Z,11.05
2022-10-13T03:16:06.575Z,10.85
2022-10-13T03:18:33.830Z,11.45
2022-10-13T03:21:03.121Z,10.73
2022-10-13T03:23:30.499Z,11.37
2022-10-13T03:25:57.289Z,11.55
2022-10-13T03:28:24.065Z,12.10
2022-10-13T03:30:51.122Z,12.52
2022-10-13T03:33:17.794Z,12.43
2022-10-13T03:35:44.494Z,13.57
2022-10-13T03:38:11.284Z,12.05
2022-10-13T03:40:38.901Z,12.18
2022-10-13T03:43:05.684Z,12.38
2022-10-13T03:45:32.428Z,12.02
2022-10-13T03:47:59.135Z,12.50
2022-10-13T03:50:26.305Z,12.90
2022-10-13T03:52:53.918Z,14.40
2022-10-13T03:55:20.778Z,12.10
2022-10-13T03:57:47.502Z,12.40
2022-10-13T04:00:15.018Z,12.27
2022-10-13T04:02:41.926Z,14.30
2022-10-13T04:05:09.077Z,14.52
2022-10-13T04:07:35.842Z,13.77
2022-10-13T04:10:11.378Z,12.40
2022-10-13T04:12:38.767Z,12.37
2022-10-13T04:15:06.055Z,13.13
2022-10-13T04:17:32.772Z,12.20
2022-10-13T04:19:59.527Z,11.38
2022-10-13T04:22:26.290Z,12.05
2022-10-13T04:24:53.031Z,11.30
2022-10-13T04:27:21.067Z,12.98
2022-10-13T04:29:47.835Z,12.00
2022-10-13T04:32:14.576Z,11.30
2022-10-13T04:34:41.447Z,12.15
2022-10-13T04:37:08.161Z,13.10
2022-10-13T04:39:35.055Z,12.05
2022-10-13T04:42:01.834Z,10.57
2022-10-13T04:44:30.561Z,11.70
2022-10-13T04:46:58.247Z,11.00
2022-10-13T04:49:25.570Z,11.87
2022-10-13T04:51:52.282Z,12.15
2022-10-13T04:54:19.031Z,12.50
2022-10-13T04:56:46.290Z,12.80
2022-10-13T04:59:13.103Z,12.07
2022-10-13T05:01:39.994Z,11.13
2022-10-13T05:04:11.481Z,12.07
2022-10-13T05:06:58.948Z,12.90
2022-10-13T05:09:27.962Z,11.73
2022-10-13T05:11:55.218Z,11.60
2022-10-13T05:14:22.551Z,14.20
2022-10-13T05:16:49.262Z,13.77
2022-10-13T05:19:17.290Z,12.02
2022-10-13T05:21:43.982Z,11.77
2022-10-13T05:24:13.690Z,11.93
2022-10-13T05:26:40.913Z,11.70
2022-10-13T05:29:08.507Z,13.00
2022-10-13T05:31:36.271Z,12.57
2022-10-13T05:34:03.140Z,12.43
2022-10-13T05:36:34.740Z,12.00
2022-10-13T05:39:06.333Z,11.77
2022-10-13T05:41:33.407Z,12.45
2022-10-13T05:44:04.581Z,13.20
2022-10-13T05:46:31.477Z,11.90
2022-10-13T05:48:58.475Z,11.68
2022-10-13T05:51:39.784Z,12.27
2022-10-13T05:54:09.065Z,12.23
2022-10-13T05:56:42.295Z,12.52
2022-10-13T05:59:12.942Z,11.75
2022-10-13T06:01:40.453Z,12.95
2022-10-13T06:04:11.919Z,13.63
2022-10-13T06:06:38.782Z,13.13
2022-10-13T06:09:06.078Z,13.15
2022-10-13T06:11:32.863Z,13.18
2022-10-13T06:13:59.571Z,13.15
2022-10-13T06:16:26.347Z,11.90
2022-10-13T06:18:53.848Z,11.48
2022-10-13T06:21:21.327Z,11.95
2022-10-13T06:23:48.150Z,11.43
2022-10-13T06:26:18.051Z,11.43
2022-10-13T06:28:49.725Z,12.10
2022-10-13T06:31:17.470Z,11.85
2022-10-13T06:33:44.906Z,11.93
2022-10-13T06:36:11.618Z,12.80
2022-10-13T06:38:38.349Z,11.50
2022-10-13T06:41:05.978Z,12.13
2022-10-13T06:43:40.225Z,13.52
2022-10-13T06:46:10.875Z,11.25
2022-10-13T06:48:38.034Z,12.70
2022-10-13T06:51:07.597Z,11.60
2022-10-13T06:53:34.481Z,12.27
2022-10-13T06:56:03.487Z,12.38
2022-10-13T06:58:30.925Z,11.63
2022-10-13T07:00:58.247Z,11.48
2022-10-13T07:03:25.384Z,12.13
2022-10-13T07:05:53.069Z,12.00
2022-10-13T07:08:20.246Z,11.48
2022-10-13T07:10:47.188Z,12.70
2022-10-13T07:13:13.993Z,12.52
2022-10-13T07:15:41.335Z,12.48
2022-10-13T07:18:08.175Z,11.97
2022-10-13T07:20:34.988Z,12.45
2022-10-13T07:23:01.959Z,11.68
2022-10-13T07:25:28.839Z,12.40
2022-10-13T07:27:55.651Z,13.27
2022-10-13T07:30:22.439Z,12.70
2022-10-13T07:32:49.472Z,13.02
2022-10-13T07:35:16.265Z,12.80
2022-10-13T07:37:43.971Z,13.18
2022-10-13T07:40:11.132Z,12.57
2022-10-13T07:42:37.859Z,12.97
2022-10-13T07:45:05.119Z,13.35
2022-10-13T07:47:31.858Z,12.85
2022-10-13T07:49:58.591Z,12.57
2022-10-13T07:52:25.398Z,11.63
2022-10-13T07:54:52.155Z,12.13
2022-10-13T07:57:18.890Z,12.07
2022-10-13T07:59:45.574Z,12.20
2022-10-13T08:02:13.252Z,11.57
2022-10-13T08:04:39.923Z,12.43
2022-10-13T08:07:07.123Z,12.07
2022-10-13T08:09:34.530Z,11.70
2022-10-13T08:12:02.119Z,12.60
2022-10-13T08:14:30.082Z,12.20
2022-10-13T08:16:57.811Z,12.20
2022-10-13T08:19:26.586Z,12.20
2022-10-13T08:21:58.681Z,11.65
2022-10-13T08:24:27.616Z,12.65
2022-10-13T08:26:54.465Z,12.40
2022-10-13T08:29:22.993Z,11.77
2022-10-13T08:31:52.482Z,13.20
2022-10-13T08:34:19.907Z,11.60
2022-10-13T08:36:47.304Z,11.27
2022-10-13T08:39:16.190Z,12.38
2022-10-13T08:41:44.182Z,12.07
2022-10-13T08:44:59.534Z,12.20
2022-10-13T08:47:18.260Z,12.40
2022-10-13T08:49:46.335Z,11.85
2022-10-13T08:52:28.631Z,12.63
2022-10-13T08:54:56.532Z,10.93
2022-10-13T08:57:24.435Z,11.20
2022-10-13T08:59:52.914Z,11.10
2022-10-13T09:02:27.187Z,10.98
2022-10-13T09:04:54.351Z,10.80
2022-10-13T09:07:26.190Z,11.95
2022-10-13T09:09:54.594Z,10.90
2022-10-13T09:12:25.189Z,10.85
2022-10-13T09:15:10.321Z,11.20
2022-10-13T09:17:39.177Z,10.68
2022-10-13T09:20:24.644Z,10.65
2022-10-13T09:23:21.623Z,11.23
2022-10-13T09:25:51.146Z,10.30
2022-10-13T09:28:31.766Z,9.70
2022-10-13T09:31:09.150Z,10.32
2022-10-13T09:33:38.479Z,10.18
2022-10-13T09:36:15.690Z,10.83
2022-10-13T09:39:07.006Z,10.32
2022-10-13T09:41:35.415Z,10.05
2022-10-13T09:44:11.700Z,10.27
2022-10-13T09:47:00.499Z,10.77
2022-10-13T09:49:39.338Z,9.87
2022-10-13T09:52:16.273Z,9.48
2022-10-13T09:54:51.388Z,9.50
2022-10-13T09:57:28.811Z,9.50
2022-10-13T10:00:23.057Z,9.45
2022-10-13T10:03:03.004Z,10.10
2022-10-13T10:05:46.198Z,10.30
2022-10-13T10:09:02.776Z,10.02
2022-10-13T10:11:37.626Z,9.90
2022-10-13T10:14:23.964Z,9.32
2022-10-13T10:17:13.660Z,9.47
2022-10-13T10:20:01.190Z,10.00
2022-10-13T10:22:33.757Z,8.82
2022-10-13T10:25:12.918Z,7.90
2022-10-13T10:27:50.495Z,8.43
2022-10-13T10:30:20.851Z,7.53
2022-10-13T10:33:04.487Z,7.88
2022-10-13T10:35:54.542Z,7.85
2022-10-13T10:38:54.284Z,7.90
2022-10-13T10:41:42.517Z,8.25
2022-10-13T10:44:30.790Z,9.10
2022-10-13T10:47:04.295Z,8.45
2022-10-13T10:49:40.511Z,8.07
2022-10-13T10:52:14.319Z,8.32
2022-10-13T10:55:01.890Z,8.00
2022-10-13T10:57:35.118Z,9.40
2022-10-13T11:00:09.988Z,10.75
2022-10-13T11:02:59.878Z,8.90
2022-10-13T11:05:51.018Z,10.02
2022-10-13T11:08:29.735Z,9.60
2022-10-13T11:11:33.421Z,9.10
2022-10-13T11:14:06.872Z,8.80
2022-10-13T11:16:40.155Z,8.98
2022-10-13T11:19:34.391Z,8.60
2022-10-13T11:22:01.077Z,9.00
2022-10-13T11:24:42.018Z,9.10
2022-10-13T11:27:17.143Z,8.77
2022-10-13T11:29:47.157Z,9.13
2022-10-13T11:32:35.222Z,9.25
2022-10-13T11:35:06.066Z,9.05
2022-10-13T11:38:05.658Z,8.87
2022-10-13T11:40:52.978Z,9.07
2022-10-13T11:43:41.133Z,9.45
2022-10-13T11:46:24.659Z,9.60
2022-10-13T11:49:37.901Z,8.93
2022-10-13T11:52:12.253Z,9.57
2022-10-13T11:54:50.532Z,9.70
2022-10-13T11:57:26.153Z,8.95
2022-10-13T11:59:55.969Z,9.32
2022-10-13T12:02:28.704Z,9.50
2022-10-13T12:05:22.667Z,9.87
2022-10-13T12:07:52.033Z,10.02
2022-10-13T12:10:32.919Z,8.98
2022-10-13T12:13:01.119Z,9.75
2022-10-13T12:15:44.386Z,9.75
2022-10-13T12:18:25.438Z,9.87
2022-10-13T12:20:57.410Z,10.18
2022-10-13T12:23:25.661Z,9.23
2022-10-13T12:25:58.223Z,9.77
2022-10-13T12:28:28.764Z,10.45
2022-10-13T12:30:59.318Z,10.90
2022-10-13T12:33:35.708Z,10.18
2022-10-13T12:36:20.235Z,9.75
2022-10-13T12:38:53.067Z,10.38
2022-10-13T12:41:27.335Z,10.50
2022-10-13T12:43:54.430Z,10.73
2022-10-13T12:46:59.082Z,10.30
2022-10-13T12:49:31.516Z,10.02
2022-10-13T12:52:04.339Z,9.93
2022-10-13T12:54:33.768Z,10.52
2022-10-13T12:57:04.573Z,10.03
2022-10-13T12:59:32.381Z,10.23
2022-10-13T13:02:02.574Z,9.70
2022-10-13T13:04:39.387Z,9.77
2022-10-13T13:07:21.844Z,10.55
2022-10-13T13:10:07.511Z,9.87
2022-10-13T13:12:36.023Z,9.25
2022-10-13T13:15:26.062Z,10.55
2022-10-13T13:17:58.756Z,9.40
2022-10-13T13:20:34.744Z,9.35
2022-10-13T13:23:01.690Z,10.53
2022-10-13T13:25:28.593Z,9.90
2022-10-13T13:27:55.339Z,10.02
2022-10-13T13:30:23.867Z,10.15
2022-10-13T13:32:50.973Z,10.52
2022-10-13T13:35:18.034Z,10.17
2022-10-13T13:37:52.368Z,9.73
2022-10-13T13:40:24.226Z,9.95
2022-10-13T13:42:51.381Z,10.15
2022-10-13T13:45:24.837Z,10.23
2022-10-13T13:47:57.977Z,9.70
2022-10-13T13:50:32.031Z,10.27
2022-10-13T13:52:59.608Z,10.32
2022-10-13T13:55:27.084Z,10.02
2022-10-13T13:57:53.843Z,10.23
2022-10-13T14:00:21.448Z,9.50
2022-10-13T14:02:55.347Z,10.07
2022-10-13T14:05:22.262Z,9.70
2022-10-13T14:07:49.363Z,9.95
2022-10-13T14:10:16.254Z,10.43
2022-10-13T14:12:43.291Z,10.40
2022-10-13T14:15:10.551Z,9.48
2022-10-13T14:17:37.611Z,10.45
2022-10-13T14:20:04.896Z,9.95
2022-10-13T14:22:40.270Z,9.85
2022-10-13T14:25:07.526Z,9.33
2022-10-13T14:27:35.728Z,10.30
2022-10-13T14:30:05.179Z,9.75
2022-10-13T14:32:32.076Z,10.60
2022-10-13T14:34:58.973Z,10.63
2022-10-13T14:37:30.323Z,10.07
2022-10-13T14:39:59.559Z,10.32
2022-10-13T14:42:26.287Z,10.27
2022-10-13T14:44:53.014Z,12.18
2022-10-13T14:47:19.967Z,10.68
2022-10-13T14:49:46.832Z,10.43
2022-10-13T14:52:13.622Z,10.82
2022-10-13T14:54:44.709Z,10.70
2022-10-13T14:57:17.175Z,10.10
2022-10-13T14:59:44.325Z,10.98
2022-10-13T15:02:11.642Z,9.70
2022-10-13T15:04:41.360Z,10.13
2022-10-13T15:07:08.122Z,10.00
2022-10-13T15:09:52.133Z,11.20
2022-10-13T15:12:20.913Z,11.07
2022-10-13T15:14:47.955Z,10.97
2022-10-13T15:17:14.683Z,11.68
2022-10-13T15:19:41.390Z,12.00
2022-10-13T15:22:08.902Z,11.30
2022-10-13T15:24:35.699Z,11.20
2022-10-13T15:27:02.420Z,11.00
2022-10-13T15:29:29.750Z,11.60
2022-10-13T15:32:17.992Z,12.00
2022-10-13T15:34:49.581Z,11.75
2022-10-13T15:37:16.387Z,12.25
2022-10-13T15:39:43.407Z,11.23
2022-10-13T15:42:11.785Z,11.30
2022-10-13T15:45:08.113Z,12.43
2022-10-13T15:47:25.242Z,10.68
2022-10-13T15:49:52.032Z,12.13
2022-10-13T15:52:19.140Z,12.77
2022-10-13T15:54:46.231Z,12.40
2022-10-13T15:57:13.086Z,11.57
2022-10-13T15:59:39.862Z,12.63
2022-10-13T16:02:06.549Z,13.73
2022-10-13T16:04:37.489Z,14.63
2022-10-13T16:07:06.052Z,14.10
2022-10-13T16:09:35.663Z,14.15
2022-10-13T16:12:06.380Z,15.60
2022-10-13T16:14:33.567Z,15.80
2022-10-13T16:17:00.863Z,13.70
2022-10-13T16:19:28.096Z,13.82
2022-10-13T16:21:54.878Z,13.43
2022-10-13T16:24:21.687Z,13.18
2022-10-13T16:26:49.469Z,14.15
2022-10-13T16:29:16.985Z,13.03
2022-10-13T16:31:44.197Z,13.90
2022-10-13T16:34:11.061Z,13.10
2022-10-13T16:36:38.112Z,14.10
2022-10-13T16:39:04.908Z,13.43
2022-10-13T16:41:32.275Z,14.27
2022-10-13T16:43:59.408Z,13.60
2022-10-13T16:46:27.682Z,13.93
2022-10-13T16:48:54.662Z,19.42
2022-10-13T16:51:24.650Z,18.83
2022-10-13T16:53:53.932Z,24.47
2022-10-13T16:56:23.787Z,18.42
2022-10-13T16:58:53.947Z,15.57
2022-10-13T17:01:20.966Z,15.35
2022-10-13T17:03:50.072Z,15.13
2022-10-13T17:06:18.325Z,13.17
2022-10-13T17:08:45.259Z,14.18
2022-10-13T17:11:38.066Z,13.95
2022-10-13T17:14:05.675Z,13.75
2022-10-13T17:16:33.387Z,14.05
2022-10-13T17:19:02.023Z,13.23
2022-10-13T17:21:36.858Z,15.30
2022-10-13T17:24:05.728Z,16.38
2022-10-13T17:26:33.341Z,17.90
2022-10-13T17:29:00.257Z,20.38
2022-10-13T17:31:27.019Z,17.67
2022-10-13T17:33:54.595Z,17.73
2022-10-13T17:36:24.790Z,16.48
2022-10-13T17:38:53.601Z,16.17
2022-10-13T17:41:20.648Z,14.25
2022-10-13T17:43:49.948Z,18.83
2022-10-13T17:49:09.587Z,20.73
2022-10-13T17:51:36.356Z,18.25
2022-10-13T17:54:03.803Z,15.50
2022-10-13T17:56:30.669Z,16.53
2022-10-13T17:58:58.759Z,16.08
2022-10-13T18:01:31.865Z,16.48
2022-10-13T18:04:06.839Z,17.33
2022-10-13T18:06:40.593Z,17.63
2022-10-13T18:09:13.647Z,18.37
2022-10-13T18:11:48.476Z,17.50
2022-10-13T18:14:17.637Z,18.23
2022-10-13T18:16:44.696Z,18.23
2022-10-13T18:19:12.705Z,14.60
2022-10-13T18:21:39.524Z,13.23
2022-10-13T18:24:06.599Z,13.80
2022-10-13T18:26:36.789Z,13.52
2022-10-13T18:29:06.131Z,13.68
2022-10-13T18:31:35.951Z,13.38
2022-10-13T18:34:05.799Z,13.33
2022-10-13T18:36:36.139Z,14.90
2022-10-13T18:39:12.780Z,16.58
2022-10-13T18:41:40.548Z,17.98
2022-10-13T18:44:08.364Z,18.10
2022-10-13T18:46:37.081Z,16.40
2022-10-13T18:49:08.561Z,18.08
2022-10-13T18:51:39.820Z,18.13
2022-10-13T18:54:07.818Z,18.45
2022-10-13T18:56:36.918Z,18.80
2022-10-13T18:59:05.579Z,19.40
2022-10-13T19:01:34.869Z,17.40
2022-10-13T19:04:01.775Z,16.20
2022-10-13T19:06:31.909Z,15.05
2022-10-13T19:09:01.286Z,15.38
2022-10-13T19:11:29.223Z,14.93
2022-10-13T19:13:57.769Z,15.65
2022-10-13T19:16:25.963Z,14.77
2022-10-13T19:18:52.867Z,15.30
2022-10-13T19:21:21.085Z,16.00
2022-10-13T19:23:48.044Z,16.20
2022-10-13T19:26:26.890Z,16.35
2022-10-13T19:28:56.393Z,16.98
2022-10-13T19:31:25.355Z,17.25
2022-10-13T19:33:54.738Z,17.25
2022-10-13T19:36:25.417Z,17.70
2022-10-13T19:38:54.438Z,18.10
2022-10-13T19:41:21.572Z,17.05
2022-10-13T19:43:48.640Z,16.80
2022-10-13T19:46:15.971Z,15.77
2022-10-13T19:48:43.664Z,16.50
2022-10-13T19:51:13.845Z,15.70
2022-10-13T19:53:40.897Z,15.88
2022-10-13T19:56:08.549Z,16.17
2022-10-13T19:58:36.374Z,16.42
2022-10-13T20:01:08.341Z,19.07
2022-10-13T20:03:35.358Z,17.17
2022-10-13T20:06:06.413Z,18.55
2022-10-13T20:08:38.490Z,17.67
2022-10-13T20:11:07.606Z,16.85
2022-10-13T20:13:34.459Z,14.73
2022-10-13T20:16:09.551Z,14.50
2022-10-13T20:18:37.440Z,14.63
2022-10-13T20:21:05.519Z,14.95
2022-10-13T20:23:32.855Z,16.52
2022-10-13T20:26:05.198Z,17.90
2022-10-13T20:28:38.004Z,17.27
2022-10-13T20:31:09.191Z,16.08
2022-10-13T20:33:36.271Z,16.25
2022-10-13T20:36:06.083Z,16.17
2022-10-13T20:38:35.895Z,15.93
2022-10-13T20:41:09.480Z,15.90
2022-10-13T20:43:37.158Z,14.60
2022-10-13T20:46:06.125Z,15.85
2022-10-13T20:48:57.918Z,15.57
2022-10-13T20:51:23.164Z,16.50
2022-10-13T20:53:50.459Z,16.23
2022-10-13T20:56:23.301Z,16.73
2022-10-13T20:58:50.717Z,15.75
2022-10-13T21:01:19.242Z,15.85
2022-10-13T21:03:46.432Z,15.63
2022-10-13T21:06:14.518Z,15.02
2022-10-13T21:08:45.034Z,15.38
2022-10-13T21:11:13.999Z,14.13
2022-10-13T21:13:41.716Z,14.30
2022-10-13T21:16:11.031Z,13.63
2022-10-13T21:18:37.930Z,14.48
2022-10-13T21:21:10.207Z,15.55
2022-10-13T21:23:37.794Z,14.68
2022-10-13T21:26:06.531Z,15.07
2022-10-13T21:28:33.991Z,14.90
2022-10-13T21:31:11.358Z,15.23
2022-10-13T21:33:39.582Z,16.05
2022-10-13T21:36:13.243Z,15.30
2022-10-13T21:38:40.486Z,15.48
2022-10-13T21:41:08.967Z,15.20
2022-10-13T21:43:36.003Z,14.80
2022-10-13T21:46:17.181Z,15.23
2022-10-13T21:48:45.056Z,14.07
2022-10-13T21:51:21.221Z,14.00
2022-10-13T21:53:50.055Z,13.07
2022-10-13T21:56:16.956Z,13.13
2022-10-13T21:58:43.863Z,13.10
2022-10-13T22:01:10.924Z,14.00
2022-10-13T22:03:37.866Z,13.98
2022-10-13T22:06:11.431Z,15.30
2022-10-13T22:08:42.867Z,15.70
2022-10-13T22:11:15.319Z,17.00
2022-10-13T22:13:42.211Z,16.63
2022-10-13T22:16:24.242Z,17.08
2022-10-13T22:18:56.451Z,17.07
2022-10-13T22:21:29.323Z,17.10
2022-10-13T22:24:02.227Z,17.00
2022-10-13T22:26:31.938Z,17.73
2022-10-13T22:29:00.161Z,16.90
2022-10-13T22:31:27.994Z,17.13
2022-10-13T22:33:54.714Z,16.65
2022-10-13T22:36:23.585Z,17.25
2022-10-13T22:38:51.636Z,16.13
2022-10-13T22:41:19.249Z,16.77
2022-10-13T22:43:50.790Z,15.40
2022-10-13T22:46:21.179Z,16.08
2022-10-13T22:48:48.664Z,15.02
2022-10-13T22:51:19.698Z,15.30
2022-10-13T22:53:46.960Z,15.88
2022-10-13T22:56:22.736Z,16.83
2022-10-13T22:59:08.697Z,17.17
2022-10-13T23:01:35.976Z,16.55
2022-10-13T23:04:03.291Z,17.92
2022-10-13T23:06:32.540Z,17.45
2022-10-13T23:09:04.424Z,16.60
2022-10-13T23:11:31.206Z,16.55
2022-10-13T23:14:01.029Z,15.50
2022-10-13T23:16:27.868Z,15.10
2022-10-13T23:18:54.595Z,15.52
2022-10-13T23:21:26.504Z,14.90
2022-10-13T23:23:58.372Z,14.00
2022-10-13T23:26:25.718Z,15.38
2022-10-13T23:28:54.671Z,15.10
2022-10-13T23:31:21.714Z,14.88
2022-10-13T23:33:48.447Z,13.83
2022-10-13T23:36:18.890Z,14.68
2022-10-13T23:38:48.053Z,14.65
2022-10-13T23:41:16.086Z,14.55
2022-10-13T23:43:43.350Z,14.50
2022-10-13T23:46:13.058Z,14.57
2022-10-13T23:48:40.451Z,16.00
2022-10-13T23:51:16.426Z,16.40
2022-10-13T23:53:43.496Z,17.55
2022-10-13T23:56:11.273Z,17.98
2022-10-13T23:58:39.927Z,17.33
